Time;durP1;ratioP1;P1;durP2;ratioP2;P2;SDS_P1;SDS_P2;PMS_P1;PMS_P2;Temp;Humidity;BMP_temperature;BMP_pressure;BME280_temperature;BME280_humidity;BME280_pressure;Samples;Min_cycle;Max_cycle;Signal;HPM_P1;HPM_P2
2022/06/20 00:00:59;;;;;;;5.40;2.22;;;15.00;93.60;;;;;;4903877;29;20035;-80
2022/06/20 00:03:29;;;;;;;5.75;3.30;;;14.70;93.70;;;;;;4920087;28;20102;-81
2022/06/20 00:05:55;;;;;;;5.28;2.05;;;15.00;93.30;;;;;;4923359;28;20060;-80
2022/06/20 00:08:21;;;;;;;4.05;2.33;;;15.00;93.40;;;;;;4922886;28;20062;-80
2022/06/20 00:10:46;;;;;;;6.75;2.38;;;15.00;93.40;;;;;;4935108;28;20523;-80
2022/06/20 00:13:21;;;;;;;5.30;2.55;;;15.00;93.50;;;;;;4922678;28;20478;-80
2022/06/20 00:15:48;;;;;;;5.67;2.43;;;15.00;92.90;;;;;;4919686;28;20043;-80
2022/06/20 00:18:14;;;;;;;4.30;2.40;;;15.00;93.10;;;;;;4906058;29;20047;-80
2022/06/20 00:20:40;;;;;;;5.25;2.28;;;14.70;93.00;;;;;;4925412;28;20168;-80
2022/06/20 00:23:05;;;;;;;3.47;1.95;;;15.00;92.90;;;;;;4913089;29;20563;-80
2022/06/20 00:25:31;;;;;;;7.43;2.80;;;15.00;92.70;;;;;;4918372;28;20587;-80
2022/06/20 00:27:57;;;;;;;2.65;2.00;;;15.00;92.60;;;;;;4920378;28;20024;-80
2022/06/20 00:30:23;;;;;;;3.88;2.45;;;15.00;91.40;;;;;;4920022;29;20035;-80
2022/06/20 00:32:48;;;;;;;2.72;1.67;;;15.10;91.50;;;;;;4938017;28;20023;-80
2022/06/20 00:35:15;;;;;;;3.42;2.00;;;15.10;91.20;;;;;;4920879;28;20042;-80
2022/06/20 00:37:40;;;;;;;6.80;2.70;;;15.10;91.10;;;;;;4924996;28;20523;-80
2022/06/20 00:40:28;;;;;;;6.82;2.53;;;15.00;91.40;;;;;;4908025;29;20031;-80
2022/06/20 00:42:53;;;;;;;4.32;2.40;;;14.90;91.40;;;;;;4950826;28;20043;-80
2022/06/20 00:45:19;;;;;;;5.45;1.85;;;14.90;91.80;;;;;;4919904;29;20105;-81
2022/06/20 00:47:45;;;;;;;4.22;2.40;;;14.90;91.70;;;;;;4922444;28;22723;-80
2022/06/20 00:50:10;;;;;;;5.45;1.85;;;14.70;91.90;;;;;;4907982;28;20030;-80
2022/06/20 00:52:48;;;;;;;5.40;2.00;;;14.90;92.70;;;;;;4953741;28;20028;-81
2022/06/20 00:55:33;;;;;;;5.97;2.20;;;14.90;92.10;;;;;;4901134;28;20459;-81
2022/06/20 00:58:17;;;;;;;6.47;2.38;;;14.70;92.90;;;;;;4918433;29;20522;-80
2022/06/20 01:00:42;;;;;;;3.60;2.45;;;14.70;93.00;;;;;;4925956;28;20034;-81
2022/06/20 01:03:13;;;;;;;3.53;2.10;;;14.70;93.70;;;;;;4935111;28;20036;-80
2022/06/20 01:05:57;;;;;;;7.80;2.70;;;14.70;93.40;;;;;;4923033;28;20030;-80
2022/06/20 01:08:25;;;;;;;4.53;3.00;;;14.70;94.20;;;;;;4914071;28;20035;-80
2022/06/20 01:11:01;;;;;;;4.63;2.40;;;14.60;94.10;;;;;;4919905;29;20609;-80
2022/06/20 01:13:27;;;;;;;6.22;3.00;;;14.80;93.60;;;;;;4937485;28;20031;-80
2022/06/20 01:15:55;;;;;;;3.50;2.22;;;14.70;93.70;;;;;;4920627;28;20112;-80
2022/06/20 01:18:29;;;;;;;6.03;3.28;;;14.80;93.90;;;;;;4906490;28;20028;-80
2022/06/20 01:20:56;;;;;;;5.82;2.70;;;14.90;92.60;;;;;;4905465;28;20035;-80
2022/06/20 01:23:30;;;;;;;5.93;2.70;;;14.90;92.40;;;;;;4932920;29;20027;-80
2022/06/20 01:26:02;;;;;;;6.85;2.92;;;14.80;92.60;;;;;;4921403;28;20043;-80
2022/06/20 01:28:35;;;;;;;5.53;2.72;;;14.60;93.30;;;;;;4960343;28;20515;-80
2022/06/20 01:31:00;;;;;;;6.80;2.25;;;14.80;95.00;;;;;;4894512;28;20106;-80
2022/06/20 01:33:26;;;;;;;3.30;2.63;;;14.80;93.10;;;;;;4922143;28;20503;-79
2022/06/20 01:38:37;;;;;;;8.50;2.15;;;14.90;92.20;;;;;;4925691;28;20046;-79
2022/06/20 01:43:47;;;;;;;8.10;3.33;;;14.70;96.30;;;;;;4935442;28;20043;-79
2022/06/20 01:46:12;;;;;;;6.35;2.03;;;14.80;93.80;;;;;;4917069;28;20429;-79
2022/06/20 01:48:43;;;;;;;4.05;1.58;;;14.80;93.20;;;;;;4916262;28;20057;-80
2022/06/20 01:51:13;;;;;;;2.95;1.88;;;14.90;92.90;;;;;;4903988;28;20057;-79
2022/06/20 01:53:40;;;;;;;12.38;2.97;;;14.90;92.40;;;;;;4918844;28;20565;-79
2022/06/20 01:56:08;;;;;;;12.02;2.55;;;14.70;96.40;;;;;;4903785;28;20043;-79
2022/06/20 01:58:33;;;;;;;7.28;3.53;;;14.60;93.10;;;;;;4934597;28;20035;-80
2022/06/20 02:00:59;;;;;;;7.18;2.28;;;14.70;92.80;;;;;;4954078;28;20487;-80
2022/06/20 02:03:25;;;;;;;8.32;4.25;;;14.60;92.50;;;;;;4920399;28;20031;-80
2022/06/20 02:05:53;;;;;;;10.05;3.65;;;14.60;92.50;;;;;;4904794;28;20042;-79
2022/06/20 02:08:19;;;;;;;11.98;3.75;;;14.60;92.50;;;;;;4924452;29;20055;-79
2022/06/20 02:10:56;;;;;;;5.47;3.40;;;14.60;92.40;;;;;;4903350;28;20419;-79
2022/06/20 02:13:23;;;;;;;4.43;1.48;;;14.60;92.20;;;;;;4920358;28;20128;-79
2022/06/20 02:15:49;;;;;;;8.40;3.30;;;14.60;91.70;;;;;;4903286;28;20027;-79
2022/06/20 02:18:15;;;;;;;8.88;3.75;;;14.60;92.30;;;;;;4922230;28;20046;-79
2022/06/20 02:20:46;;;;;;;6.55;3.03;;;14.50;92.20;;;;;;4903814;28;20035;-79
2022/06/20 02:23:31;;;;;;;8.02;3.88;;;14.50;92.70;;;;;;4920160;28;20043;-79
2022/06/20 02:25:56;;;;;;;10.05;4.57;;;14.50;91.90;;;;;;4931155;28;20131;-79
2022/06/20 02:28:25;;;;;;;9.43;4.03;;;14.40;93.90;;;;;;4917668;28;20039;-79
2022/06/20 02:30:51;;;;;;;10.60;4.72;;;14.40;95.30;;;;;;4918404;28;20038;-79
2022/06/20 02:33:22;;;;;;;12.98;4.85;;;14.40;94.20;;;;;;4906809;28;20035;-79
2022/06/20 02:35:48;;;;;;;8.73;4.53;;;14.40;96.40;;;;;;4893460;28;20065;-79
2022/06/20 02:38:14;;;;;;;13.88;4.30;;;14.20;96.60;;;;;;4901900;28;20059;-78
2022/06/20 02:40:41;;;;;;;12.18;5.00;;;14.20;98.90;;;;;;4933974;28;20079;-78
2022/06/20 02:43:41;;;;;;;9.90;4.68;;;14.20;99.00;;;;;;4918485;29;20110;-78
2022/06/20 02:46:11;;;;;;;10.73;5.53;;;14.10;99.80;;;;;;4911856;29;20035;-78
2022/06/20 02:48:37;;;;;;;11.02;4.32;;;14.10;99.90;;;;;;4915082;28;20051;-78
2022/06/20 02:51:04;;;;;;;8.20;4.60;;;14.10;99.90;;;;;;4931842;28;20054;-79
2022/06/20 02:53:57;;;;;;;11.48;4.53;;;14.10;99.80;;;;;;4921332;28;20507;-78
2022/06/20 02:56:24;;;;;;;7.63;4.70;;;14.00;99.90;;;;;;4911802;29;20060;-78
2022/06/20 02:58:57;;;;;;;7.05;4.63;;;14.00;99.90;;;;;;4919410;28;20036;-78
2022/06/20 03:01:44;;;;;;;9.40;3.90;;;13.90;99.90;;;;;;4916740;28;20031;-78
2022/06/20 03:04:10;;;;;;;7.05;4.00;;;13.80;99.90;;;;;;4931707;28;20498;-78
2022/06/20 03:06:44;;;;;;;10.00;3.67;;;13.90;99.90;;;;;;4905081;28;20038;-78
2022/06/20 03:09:13;;;;;;;4.35;3.30;;;13.80;99.90;;;;;;4931240;28;20560;-78
2022/06/20 03:11:39;;;;;;;6.15;3.38;;;13.70;99.90;;;;;;4920151;28;20781;-78
2022/06/20 03:14:07;;;;;;;6.25;3.58;;;13.70;99.90;;;;;;4907732;29;20106;-78
2022/06/20 03:16:33;;;;;;;10.90;3.88;;;13.80;99.90;;;;;;4921779;28;20062;-78
2022/06/20 03:18:59;;;;;;;6.70;3.63;;;13.70;99.90;;;;;;4933109;28;20035;-78
2022/06/20 03:21:27;;;;;;;8.73;4.03;;;13.60;99.90;;;;;;4915357;28;20050;-78
2022/06/20 03:23:53;;;;;;;6.43;3.88;;;13.60;99.90;;;;;;4931293;28;20093;-78
2022/06/20 03:26:23;;;;;;;5.13;3.10;;;13.50;99.90;;;;;;4932657;28;20043;-78
2022/06/20 03:28:49;;;;;;;10.73;3.53;;;13.60;99.90;;;;;;4914657;29;20035;-78
2022/06/20 03:31:15;;;;;;;10.95;3.20;;;13.70;99.90;;;;;;4915110;28;20039;-78
2022/06/20 03:33:40;;;;;;;7.53;3.40;;;13.50;99.90;;;;;;4917653;28;20142;-78
2022/06/20 03:36:08;;;;;;;10.65;3.40;;;13.40;99.90;;;;;;4899660;28;20384;-78
2022/06/20 03:38:37;;;;;;;7.25;3.10;;;13.40;99.90;;;;;;4930225;28;20106;-78
2022/06/20 03:41:06;;;;;;;8.18;3.72;;;13.50;99.90;;;;;;4904052;28;20508;-78
2022/06/20 03:43:31;;;;;;;5.75;2.90;;;13.40;99.90;;;;;;4903040;28;20067;-78
2022/06/20 03:45:58;;;;;;;8.80;3.22;;;13.50;99.90;;;;;;4903564;28;20074;-78
2022/06/20 03:48:28;;;;;;;7.20;3.30;;;13.40;99.90;;;;;;4904408;28;20038;-78
2022/06/20 03:51:08;;;;;;;13.63;3.63;;;13.40;99.90;;;;;;4901535;28;20123;-78
2022/06/20 03:53:55;;;;;;;7.40;2.88;;;13.40;99.90;;;;;;4913891;28;20031;-78
2022/06/20 03:56:36;;;;;;;7.85;3.00;;;13.50;99.90;;;;;;4935180;29;20118;-78
2022/06/20 03:59:14;;;;;;;9.43;2.85;;;13.50;99.90;;;;;;4921470;28;20042;-78
2022/06/20 04:01:45;;;;;;;7.07;2.80;;;13.60;99.90;;;;;;4918545;28;20034;-78
2022/06/20 04:04:33;;;;;;;7.07;2.75;;;13.90;99.90;;;;;;4916991;28;20502;-78
2022/06/20 04:07:04;;;;;;;6.03;2.55;;;13.50;99.90;;;;;;4929357;29;20410;-78
2022/06/20 04:12:37;;;;;;;9.63;2.60;;;13.50;99.90;;;;;;4927584;28;20184;-78
2022/06/20 04:15:27;;;;;;;5.35;2.40;;;13.50;99.90;;;;;;4933460;28;20114;-78
2022/06/20 04:20:57;;;;;;;5.88;2.70;;;13.60;99.90;;;;;;4921337;28;20082;-78
2022/06/20 04:23:43;;;;;;;10.63;2.30;;;13.60;99.90;;;;;;4907947;28;20090;-78
2022/06/20 04:26:32;;;;;;;7.22;2.67;;;13.70;99.90;;;;;;4904524;28;20031;-78
2022/06/20 04:29:12;;;;;;;8.48;2.75;;;13.60;99.90;;;;;;4931858;29;20444;-78
2022/06/20 04:31:44;;;;;;;9.57;2.97;;;13.70;99.90;;;;;;4932316;28;20170;-78
2022/06/20 04:34:15;;;;;;;11.00;2.80;;;13.80;99.90;;;;;;4918657;28;20062;-78
2022/06/20 04:36:51;;;;;;;8.93;2.60;;;13.70;99.90;;;;;;4922648;28;20043;-78
2022/06/20 04:39:24;;;;;;;3.42;1.17;;;13.70;99.90;;;;;;4920761;28;20050;-78
2022/06/20 04:41:56;;;;;;;4.63;2.08;;;13.90;99.90;;;;;;4897574;28;20039;-78
2022/06/20 04:44:29;;;;;;;4.68;1.60;;;14.00;99.90;;;;;;4903756;28;20027;-78
2022/06/20 04:47:13;;;;;;;7.45;2.33;;;14.00;99.90;;;;;;4921371;28;20163;-78
2022/06/20 04:49:38;;;;;;;6.32;2.10;;;13.90;99.90;;;;;;4952216;28;20031;-79
2022/06/20 04:52:04;;;;;;;5.80;1.73;;;13.80;99.90;;;;;;4933041;28;20035;-78
2022/06/20 04:54:29;;;;;;;4.75;1.70;;;13.80;99.90;;;;;;4918374;28;20035;-78
2022/06/20 04:56:56;;;;;;;4.43;1.30;;;13.90;99.90;;;;;;4919575;29;20047;-78
2022/06/20 04:59:26;;;;;;;3.80;2.08;;;14.00;99.90;;;;;;4920588;29;20046;-78
2022/06/20 05:01:52;;;;;;;4.50;1.58;;;14.00;99.90;;;;;;4918602;29;20033;-78
2022/06/20 05:04:23;;;;;;;1.75;1.38;;;13.90;99.90;;;;;;4912050;28;20035;-78
2022/06/20 05:06:49;;;;;;;6.95;2.45;;;13.80;99.90;;;;;;4933114;28;20031;-78
2022/06/20 05:09:41;;;;;;;8.75;1.88;;;13.80;99.90;;;;;;4919870;28;20364;-78
2022/06/20 05:12:11;;;;;;;7.25;3.95;;;13.80;99.90;;;;;;4916141;29;20048;-78
2022/06/20 05:14:43;;;;;;;4.35;1.23;;;13.90;99.90;;;;;;4912208;28;20471;-78
2022/06/20 05:17:14;;;;;;;3.60;1.27;;;13.80;99.90;;;;;;4919807;28;20509;-78
2022/06/20 05:19:41;;;;;;;6.00;2.50;;;14.00;99.90;;;;;;4917414;28;20027;-78
2022/06/20 05:22:12;;;;;;;5.43;1.90;;;14.10;99.90;;;;;;4917440;28;20090;-78
2022/06/20 05:24:38;;;;;;;5.22;2.30;;;14.10;99.90;;;;;;4909224;28;20099;-78
2022/06/20 05:27:31;;;;;;;10.25;2.80;;;14.10;99.90;;;;;;4905238;28;20039;-78
2022/06/20 05:30:00;;;;;;;5.95;2.55;;;13.90;99.90;;;;;;4935963;29;20512;-80
2022/06/20 05:32:49;;;;;;;11.88;2.95;;;13.90;99.90;;;;;;4921249;28;20031;-79
2022/06/20 05:35:19;;;;;;;7.15;3.00;;;14.20;99.90;;;;;;4936762;28;20559;-79
2022/06/20 05:38:13;;;;;;;8.63;3.10;;;13.80;99.90;;;;;;4933597;28;20118;-79
2022/06/20 05:40:57;;;;;;;4.03;1.58;;;13.80;99.90;;;;;;4911109;29;20035;-79
2022/06/20 05:43:23;;;;;;;14.05;3.17;;;14.10;99.90;;;;;;4897383;28;20027;-78
2022/06/20 05:45:54;;;;;;;7.75;2.67;;;14.00;99.90;;;;;;4932823;28;20502;-80
2022/06/20 05:48:22;;;;;;;11.95;3.75;;;13.80;99.90;;;;;;4914736;29;20526;-79
2022/06/20 05:50:56;;;;;;;11.95;3.25;;;13.70;99.90;;;;;;4916227;28;20023;-80
2022/06/20 05:53:46;;;;;;;13.18;3.53;;;13.90;99.90;;;;;;4930912;28;20361;-80
2022/06/20 05:56:25;;;;;;;8.80;2.92;;;13.80;99.90;;;;;;4919224;28;20042;-80
2022/06/20 05:58:50;;;;;;;41.10;4.43;;;13.70;99.90;;;;;;4908634;28;20055;-81
2022/06/20 06:01:18;;;;;;;33.72;4.35;;;13.70;99.90;;;;;;4917730;28;20035;-79
2022/06/20 06:03:58;;;;;;;12.75;3.92;;;13.70;99.90;;;;;;4905806;29;20035;-79
2022/06/20 06:06:39;;;;;;;15.27;3.60;;;13.60;99.90;;;;;;4917024;28;20114;-80
2022/06/20 06:09:48;;;;;;;12.38;3.65;;;13.60;99.90;;;;;;4897487;28;20129;-79
2022/06/20 06:12:39;;;;;;;11.25;3.20;;;13.70;99.90;;;;;;4930191;28;20434;-79
2022/06/20 06:15:36;;;;;;;15.63;4.75;;;13.70;99.90;;;;;;4921484;29;20036;-79
2022/06/20 06:18:03;;;;;;;14.05;4.10;;;13.80;99.90;;;;;;4948933;28;20031;-79
2022/06/20 06:20:30;;;;;;;20.95;4.60;;;13.80;99.90;;;;;;4905394;28;20024;-79
2022/06/20 06:23:04;;;;;;;9.65;3.70;;;13.90;99.90;;;;;;4918253;29;20035;-79
2022/06/20 06:25:37;;;;;;;15.25;4.32;;;14.00;99.90;;;;;;4899687;29;20053;-79
2022/06/20 06:28:16;;;;;;;14.35;4.53;;;14.00;99.90;;;;;;4930492;28;20031;-79
2022/06/20 06:31:09;;;;;;;18.27;4.72;;;14.20;99.90;;;;;;4900024;28;20102;-79
2022/06/20 06:33:41;;;;;;;13.00;4.38;;;14.30;99.90;;;;;;4919316;28;20507;-79
2022/06/20 06:36:22;;;;;;;14.15;4.60;;;14.40;99.90;;;;;;4916590;28;20499;-79
2022/06/20 06:39:02;;;;;;;13.88;4.10;;;14.40;99.90;;;;;;4918057;28;20533;-79
2022/06/20 06:41:33;;;;;;;10.88;3.88;;;14.60;99.90;;;;;;4900073;29;20031;-79
2022/06/20 06:43:59;;;;;;;12.68;4.68;;;14.60;99.90;;;;;;4919260;29;20058;-79
2022/06/20 06:46:46;;;;;;;13.88;4.43;;;14.70;99.90;;;;;;4900500;28;20140;-79
2022/06/20 06:49:19;;;;;;;16.77;3.53;;;14.90;99.90;;;;;;4906061;28;20031;-79
2022/06/20 06:51:52;;;;;;;13.80;3.83;;;15.00;99.90;;;;;;4919666;28;20043;-79
2022/06/20 06:54:53;;;;;;;9.00;3.05;;;15.10;99.90;;;;;;4926060;28;20117;-79
2022/06/20 06:57:35;;;;;;;15.63;3.60;;;15.20;99.90;;;;;;4915940;29;20035;-79
2022/06/20 07:00:04;;;;;;;11.77;3.05;;;15.30;99.90;;;;;;4897935;28;20061;-79
2022/06/20 07:02:35;;;;;;;10.77;3.28;;;15.50;99.90;;;;;;4949023;28;20574;-80
2022/06/20 07:05:17;;;;;;;8.95;3.10;;;15.50;99.90;;;;;;4916204;28;20035;-79
2022/06/20 07:07:49;;;;;;;15.25;3.17;;;15.60;99.90;;;;;;4930902;28;20125;-79
2022/06/20 07:10:36;;;;;;;6.45;2.75;;;15.70;99.90;;;;;;4903375;28;20042;-79
2022/06/20 07:13:12;;;;;;;12.35;3.75;;;15.80;99.90;;;;;;4909710;28;20686;-79
2022/06/20 07:15:38;;;;;;;9.55;2.67;;;15.90;99.90;;;;;;4915120;29;20039;-80
2022/06/20 07:18:06;;;;;;;9.95;3.28;;;16.00;99.90;;;;;;4908118;28;20045;-79
2022/06/20 07:20:36;;;;;;;11.63;3.88;;;16.00;99.90;;;;;;4919136;28;20416;-79
2022/06/20 07:23:04;;;;;;;9.93;3.35;;;16.10;99.90;;;;;;4913809;28;20035;-79
2022/06/20 07:25:38;;;;;;;13.60;3.70;;;16.30;99.90;;;;;;4901190;28;20167;-80
2022/06/20 07:28:24;;;;;;;9.23;3.17;;;16.50;99.90;;;;;;4922637;28;20038;-80
2022/06/20 07:30:58;;;;;;;17.98;4.00;;;16.70;99.90;;;;;;4933437;28;20534;-80
2022/06/20 07:33:53;;;;;;;14.73;3.95;;;16.90;99.90;;;;;;4929489;29;20031;-79
2022/06/20 07:36:22;;;;;;;14.60;3.67;;;17.10;99.90;;;;;;4930017;28;20070;-80
2022/06/20 07:38:52;;;;;;;9.98;3.20;;;17.20;99.90;;;;;;4914119;28;20031;-80
2022/06/20 07:41:22;;;;;;;11.18;3.40;;;17.30;99.90;;;;;;4925628;28;20031;-80
2022/06/20 07:43:57;;;;;;;11.32;3.00;;;17.50;99.90;;;;;;4900698;28;20039;-79
2022/06/20 07:46:41;;;;;;;10.95;2.90;;;17.70;99.90;;;;;;4904061;29;20270;-80
2022/06/20 07:49:12;;;;;;;6.22;2.92;;;18.00;99.90;;;;;;4920158;28;20448;-80
2022/06/20 07:51:40;;;;;;;9.52;3.15;;;18.30;99.90;;;;;;4925745;28;20059;-80
2022/06/20 07:54:16;;;;;;;8.60;2.53;;;18.50;99.90;;;;;;4906508;28;20046;-80
2022/06/20 07:56:55;;;;;;;14.13;2.97;;;18.50;99.90;;;;;;4900798;28;20069;-80
2022/06/20 07:59:42;;;;;;;11.40;2.90;;;18.60;99.90;;;;;;4937253;28;20483;-80
2022/06/20 08:02:22;;;;;;;8.98;2.78;;;18.80;99.90;;;;;;4910445;28;20078;-80
2022/06/20 08:04:50;;;;;;;7.38;2.63;;;19.20;99.90;;;;;;4915653;29;20518;-79
2022/06/20 08:07:39;;;;;;;6.72;2.53;;;19.70;99.90;;;;;;4934299;28;20475;-80
2022/06/20 08:10:20;;;;;;;8.95;2.10;;;20.20;99.90;;;;;;4918790;28;20043;-78
2022/06/20 08:13:27;;;;;;;8.27;2.08;;;20.30;99.90;;;;;;4925649;28;20031;-79
2022/06/20 08:16:22;;;;;;;3.00;1.75;;;20.40;99.90;;;;;;4818928;29;20083;-79
2022/06/20 08:18:47;;;;;;;9.57;2.78;;;20.50;99.90;;;;;;4935781;28;20027;-79
2022/06/20 08:21:24;;;;;;;8.30;2.30;;;20.50;99.90;;;;;;4904148;28;20046;-79
2022/06/20 08:23:53;;;;;;;11.07;2.63;;;20.70;99.90;;;;;;4935281;28;20035;-79
2022/06/20 08:26:33;;;;;;;8.32;3.05;;;21.00;99.90;;;;;;4898199;28;20032;-79
2022/06/20 08:29:00;;;;;;;7.45;3.08;;;21.50;99.90;;;;;;4913654;28;20134;-79
2022/06/20 08:31:30;;;;;;;6.43;2.15;;;21.60;99.90;;;;;;4903853;28;20506;-79
2022/06/20 08:34:06;;;;;;;7.13;2.70;;;21.90;99.90;;;;;;4903954;28;20474;-79
2022/06/20 08:36:43;;;;;;;;;;;22.00;99.90;;;;;;4933342;28;20035;-79
2022/06/20 08:39:18;;;;;;;6.50;2.30;;;22.50;99.90;;;;;;4934144;28;20392;-79
2022/06/20 08:42:02;;;;;;;7.90;3.17;;;23.00;99.90;;;;;;4920216;28;20027;-79
2022/06/20 08:44:36;;;;;;;6.43;2.30;;;23.20;99.90;;;;;;4952339;28;20031;-79
2022/06/20 08:47:11;;;;;;;4.38;1.85;;;23.00;99.90;;;;;;4917991;28;20594;-79
2022/06/20 08:50:13;;;;;;;6.45;1.95;;;23.00;99.90;;;;;;4925025;28;20035;-79
2022/06/20 08:53:02;;;;;;;4.55;1.50;;;22.90;99.90;;;;;;4950670;28;20031;-79
2022/06/20 08:55:37;;;;;;;7.40;1.45;;;23.00;99.90;;;;;;4935837;28;20037;-79
2022/06/20 08:58:11;;;;;;;4.93;1.45;;;23.30;99.90;;;;;;4923310;29;20053;-79
2022/06/20 09:01:11;;;;;;;4.65;1.45;;;23.50;99.90;;;;;;4950287;28;20600;-79
2022/06/20 09:03:44;;;;;;;4.15;1.60;;;23.70;99.80;;;;;;4898477;28;20577;-79
2022/06/20 09:06:24;;;;;;;5.00;1.25;;;23.80;98.70;;;;;;4938828;28;20031;-79
2022/06/20 09:09:17;;;;;;;5.07;1.33;;;23.80;98.20;;;;;;4922364;28;20130;-79
2022/06/20 09:12:09;;;;;;;5.60;1.58;;;24.00;97.50;;;;;;4937739;28;20146;-79
2022/06/20 09:14:52;;;;;;;8.30;1.80;;;24.00;96.00;;;;;;4919024;29;20024;-79
2022/06/20 09:17:25;;;;;;;4.97;1.40;;;24.00;96.20;;;;;;4950235;28;20090;-80
2022/06/20 09:20:12;;;;;;;3.58;1.40;;;24.10;95.00;;;;;;4909471;28;20381;-79
2022/06/20 09:23:13;;;;;;;3.30;1.27;;;24.20;94.70;;;;;;4951174;28;20061;-79
2022/06/20 09:26:03;;;;;;;4.70;1.70;;;24.40;94.10;;;;;;4934363;29;20035;-79
2022/06/20 09:29:06;;;;;;;6.82;1.80;;;24.30;91.30;;;;;;4932146;29;20035;-79
2022/06/20 09:31:50;;;;;;;5.25;2.10;;;24.20;90.70;;;;;;4930059;28;20041;-80
2022/06/20 09:34:35;;;;;;;5.03;1.75;;;24.10;90.40;;;;;;4951105;28;20776;-79
2022/06/20 09:37:11;;;;;;;5.90;2.08;;;24.20;91.00;;;;;;4918244;28;20050;-80
2022/06/20 09:39:54;;;;;;;2.58;1.17;;;24.20;90.00;;;;;;4909859;28;20047;-80
2022/06/20 09:42:44;;;;;;;5.47;1.75;;;24.40;90.60;;;;;;4916541;28;20041;-80
2022/06/20 09:45:32;;;;;;;4.65;1.33;;;24.80;86.00;;;;;;4932738;28;20034;-80
2022/06/20 09:48:22;;;;;;;3.55;1.25;;;24.80;86.30;;;;;;4940060;28;20040;-80
2022/06/20 09:50:59;;;;;;;5.43;1.88;;;25.00;81.90;;;;;;4935023;28;20367;-80
2022/06/20 09:53:50;;;;;;;5.55;2.00;;;25.00;84.20;;;;;;4917764;28;20526;-80
2022/06/20 09:56:41;;;;;;;5.90;1.52;;;25.50;79.70;;;;;;4938161;28;20047;-80
2022/06/20 09:59:22;;;;;;;5.10;1.70;;;25.90;81.20;;;;;;4916779;28;20043;-80
2022/06/20 10:02:16;;;;;;;5.10;1.48;;;26.20;72.50;;;;;;4952506;28;20425;-80
2022/06/20 10:04:57;;;;;;;2.70;1.35;;;26.50;77.70;;;;;;4901712;28;20333;-80
2022/06/20 10:07:30;;;;;;;6.35;1.38;;;26.60;74.80;;;;;;4935419;29;20035;-80
2022/06/20 10:10:19;;;;;;;3.85;1.37;;;26.70;75.60;;;;;;4591846;28;10000761;-80
2022/06/20 10:13:27;;;;;;;3.45;1.52;;;26.60;75.40;;;;;;4580119;28;10001107;-80
2022/06/20 10:16:11;;;;;;;3.95;1.20;;;26.60;73.40;;;;;;4917933;28;20050;-80
2022/06/20 10:18:58;;;;;;;2.30;0.93;;;26.50;73.10;;;;;;4951574;28;20073;-80
2022/06/20 10:21:47;;;;;;;3.63;1.67;;;26.50;72.60;;;;;;4897660;28;20116;-80
2022/06/20 10:24:33;;;;;;;2.67;1.35;;;27.10;72.40;;;;;;4933060;28;20123;-80
2022/06/20 10:27:29;;;;;;;6.65;1.60;;;27.40;69.70;;;;;;4914191;28;20043;-81
2022/06/20 10:30:27;;;;;;;3.83;1.45;;;27.60;69.70;;;;;;4930958;29;20385;-81
2022/06/20 10:32:52;;;;;;;3.28;1.20;;;27.70;67.00;;;;;;4923053;28;20030;-81
2022/06/20 10:35:42;;;;;;;6.07;1.55;;;27.70;68.00;;;;;;4937702;28;20406;-81
2022/06/20 10:38:39;;;;;;;5.90;1.15;;;27.80;66.20;;;;;;4920037;28;20447;-81
2022/06/20 10:41:15;;;;;;;5.22;1.00;;;27.80;65.80;;;;;;4905835;29;20318;-81
2022/06/20 10:43:46;;;;;;;4.18;1.40;;;27.80;65.40;;;;;;4914843;29;20040;-81
2022/06/20 10:46:18;;;;;;;3.40;1.00;;;27.90;65.20;;;;;;4923293;28;20027;-81
2022/06/20 10:49:22;;;;;;;3.33;1.42;;;28.30;66.00;;;;;;4931115;28;20038;-81
2022/06/20 10:52:12;;;;;;;6.57;1.73;;;28.80;62.30;;;;;;4951952;28;20503;-81
2022/06/20 10:54:39;;;;;;;2.53;1.40;;;28.90;57.80;;;;;;4938080;28;20085;-82
2022/06/20 10:57:30;;;;;;;3.47;1.55;;;28.60;57.60;;;;;;4954698;28;20439;-81
2022/06/20 11:00:12;;;;;;;1.90;1.08;;;28.60;58.90;;;;;;4910698;29;20039;-82
2022/06/20 11:02:43;;;;;;;6.60;1.92;;;28.70;59.80;;;;;;4911908;29;20123;-82
2022/06/20 11:05:19;;;;;;;3.78;1.10;;;28.80;58.60;;;;;;4936459;28;20039;-82
2022/06/20 11:08:10;;;;;;;1.98;0.90;;;29.00;59.20;;;;;;4929911;28;20050;-82
2022/06/20 11:10:58;;;;;;;3.65;1.70;;;29.00;58.30;;;;;;4893213;28;20454;-82
2022/06/20 11:13:31;;;;;;;4.32;1.83;;;29.00;57.80;;;;;;4955105;28;20027;-83
2022/06/20 11:16:18;;;;;;;4.43;1.42;;;29.00;57.10;;;;;;4937377;29;20047;-82
2022/06/20 11:19:15;;;;;;;2.53;1.10;;;29.10;57.30;;;;;;4935651;28;20027;-82
2022/06/20 11:21:54;;;;;;;4.78;1.30;;;29.30;57.30;;;;;;4929681;28;20545;-83
2022/06/20 11:24:37;;;;;;;2.58;1.08;;;29.50;57.30;;;;;;4917247;28;20054;-83
2022/06/20 11:27:18;;;;;;;3.47;1.42;;;29.70;55.50;;;;;;4949894;29;20032;-83
2022/06/20 11:29:47;;;;;;;5.13;1.25;;;30.10;53.60;;;;;;4945650;28;20047;-83
2022/06/20 11:32:19;;;;;;;4.97;1.23;;;30.30;52.50;;;;;;4940048;29;20472;-84
2022/06/20 11:34:50;;;;;;;7.22;1.15;;;30.40;53.20;;;;;;4955860;28;20030;-85
2022/06/20 11:37:26;;;;;;;2.83;1.38;;;30.60;58.30;;;;;;4922359;28;20070;-84
2022/06/20 11:40:07;;;;;;;3.95;1.30;;;30.40;54.10;;;;;;4935755;28;20031;-84
2022/06/20 11:42:45;;;;;;;2.88;1.70;;;30.70;53.70;;;;;;4935764;28;20035;-85
2022/06/20 11:45:26;;;;;;;5.50;1.33;;;30.90;52.50;;;;;;4938541;28;20039;-85
2022/06/20 11:48:04;;;;;;;1.63;1.25;;;31.10;52.20;;;;;;4924130;29;20399;-85
2022/06/20 11:50:35;;;;;;;3.95;1.40;;;31.00;50.90;;;;;;4912817;29;20051;-85
2022/06/20 11:53:08;;;;;;;4.88;1.60;;;30.90;51.40;;;;;;4917247;29;20098;-85
2022/06/20 11:55:38;;;;;;;2.70;0.98;;;31.10;52.10;;;;;;4935431;28;20124;-85
2022/06/20 11:58:12;;;;;;;3.45;1.30;;;31.40;52.00;;;;;;4907776;29;20031;-85
2022/06/20 12:00:47;;;;;;;5.63;1.67;;;31.70;50.80;;;;;;4952377;28;20031;-85
2022/06/20 12:03:22;;;;;;;2.50;0.90;;;31.80;49.20;;;;;;4924753;28;20035;-85
2022/06/20 12:05:54;;;;;;;4.68;1.13;;;32.00;48.20;;;;;;4952997;28;20031;-86
2022/06/20 12:09:15;;;;;;;3.05;1.38;;;31.90;48.80;;;;;;4998291;23;20558;-86
2022/06/20 12:11:56;;;;;;;2.50;1.55;;;32.40;48.00;;;;;;4915463;29;20610;-85
2022/06/20 12:14:22;;;;;;;2.25;1.08;;;32.60;46.40;;;;;;4892446;29;20381;-84
2022/06/20 12:17:08;;;;;;;3.03;1.60;;;32.80;45.00;;;;;;4951245;28;20046;-84
2022/06/20 12:25:44;;;;;;;4.40;1.60;;;32.80;44.80;;;;;;4934136;29;20038;-82
2022/06/20 12:28:27;;;;;;;2.45;1.35;;;32.90;44.30;;;;;;4901127;29;20569;-81
2022/06/20 12:31:07;;;;;;;4.50;1.38;;;32.60;45.90;;;;;;4916537;29;20070;-81
2022/06/20 12:33:36;;;;;;;2.75;1.30;;;32.50;46.30;;;;;;4949573;28;20122;-81
2022/06/20 12:36:06;;;;;;;3.25;1.27;;;32.40;44.90;;;;;;4930898;29;20070;-80
2022/06/20 12:38:41;;;;;;;2.78;1.50;;;32.30;44.50;;;;;;4931974;29;20571;-81
2022/06/20 12:41:11;;;;;;;4.53;1.75;;;32.20;42.60;;;;;;4928002;29;20147;-81
2022/06/20 12:43:40;;;;;;;5.03;1.75;;;32.30;45.60;;;;;;4930587;29;20499;-80
2022/06/20 12:46:26;;;;;;;4.55;1.67;;;32.70;45.00;;;;;;4949213;29;20042;-79
2022/06/20 12:48:57;;;;;;;2.60;1.30;;;33.20;44.70;;;;;;4947581;29;20134;-79
2022/06/20 12:51:32;;;;;;;3.08;1.17;;;33.40;45.20;;;;;;4932082;29;20046;-79
2022/06/20 12:54:38;;;;;;;5.22;1.83;;;33.70;44.70;;;;;;4931113;29;20059;-79
2022/06/20 12:57:09;;;;;;;1.52;1.00;;;34.00;44.50;;;;;;4945225;29;20582;-79
2022/06/20 12:59:35;;;;;;;6.68;1.50;;;33.90;43.50;;;;;;4946892;29;20110;-79
2022/06/20 13:02:32;;;;;;;4.53;1.70;;;33.90;42.40;;;;;;4947434;29;20138;-79
2022/06/20 13:05:22;;;;;;;5.75;1.77;;;33.60;42.90;;;;;;4930086;29;20054;-80
2022/06/20 13:07:50;;;;;;;4.65;1.63;;;33.60;43.10;;;;;;4943173;28;20121;-79
2022/06/20 13:10:42;;;;;;;10.45;1.85;;;33.60;42.50;;;;;;4926281;29;20531;-79
2022/06/20 13:13:14;;;;;;;4.85;1.58;;;33.50;41.10;;;;;;4929307;29;20035;-79
2022/06/20 13:16:19;;;;;;;4.82;1.60;;;33.40;41.60;;;;;;4932931;29;20040;-77
2022/06/20 13:18:53;;;;;;;4.72;1.67;;;33.60;40.70;;;;;;4924795;29;20062;-78
2022/06/20 13:21:28;;;;;;;3.40;1.45;;;33.60;41.20;;;;;;4929522;29;20481;-78
2022/06/20 13:24:24;;;;;;;3.60;1.35;;;33.40;40.50;;;;;;4924910;29;20639;-78
2022/06/20 13:27:13;;;;;;;4.30;1.25;;;33.40;41.00;;;;;;4925553;29;20055;-78
2022/06/20 13:30:03;;;;;;;3.08;1.42;;;33.20;42.00;;;;;;4935426;29;20031;-79
2022/06/20 13:32:48;;;;;;;5.28;2.20;;;33.40;41.10;;;;;;4920472;29;20028;-78
2022/06/20 13:35:18;;;;;;;;;;;33.60;40.50;;;;;;4932861;29;20564;-79
2022/06/20 13:38:10;;;;;;;3.92;1.75;;;33.60;40.60;;;;;;4933674;28;20409;-78
2022/06/20 13:41:14;;;;;;;5.57;1.73;;;33.20;37.70;;;;;;4895124;28;20170;-79
2022/06/20 13:43:52;;;;;;;4.82;2.03;;;33.20;39.60;;;;;;4940939;29;20038;-78
2022/06/20 13:46:37;;;;;;;4.55;1.65;;;33.00;39.00;;;;;;4941236;28;20496;-79
2022/06/20 13:49:08;;;;;;;5.20;1.55;;;32.80;40.40;;;;;;4918868;28;20039;-78
2022/06/20 13:51:42;;;;;;;2.45;1.40;;;32.60;40.10;;;;;;4907796;29;20036;-78